Time;durP1;ratioP1;P1;durP2;ratioP2;P2;SDS_P1;SDS_P2;PMS_P1;PMS_P2;Temp;Humidity;BMP_temperature;BMP_pressure;BME280_temperature;BME280_humidity;BME280_pressure;Samples;Min_cycle;Max_cycle;Signal;HPM_P1;HPM_P2
2022/07/11 00:02:32;;;;;;;2.08;1.30;;;23.10;51.90;;;;;;6113199;28;80525;-66
2022/07/11 00:05:33;;;;;;;2.53;1.40;;;23.10;51.90;;;;;;6117532;28;82195;-65
2022/07/11 00:08:33;;;;;;;2.22;1.65;;;23.10;51.90;;;;;;6105156;28;80579;-64
2022/07/11 00:11:33;;;;;;;3.15;1.75;;;23.10;52.00;;;;;;6114079;28;80595;-65
2022/07/11 00:14:34;;;;;;;2.67;1.55;;;23.10;51.90;;;;;;6111986;28;80359;-64
2022/07/11 00:17:34;;;;;;;3.70;1.60;;;23.10;52.00;;;;;;6112870;28;80584;-64
2022/07/11 00:20:35;;;;;;;7.03;1.73;;;23.10;52.00;;;;;;6111593;28;80554;-65
2022/07/11 00:23:36;;;;;;;8.30;1.95;;;23.10;52.10;;;;;;6112963;28;80353;-65
2022/07/11 00:26:36;;;;;;;2.88;1.60;;;23.10;52.10;;;;;;6111734;28;80298;-65
2022/07/11 00:29:37;;;;;;;4.63;1.90;;;23.00;52.20;;;;;;6119502;28;81333;-65
2022/07/11 00:32:37;;;;;;;3.22;1.42;;;23.00;52.20;;;;;;6118272;28;81584;-64
2022/07/11 00:35:38;;;;;;;5.57;1.75;;;23.00;52.20;;;;;;6113047;28;80778;-65
2022/07/11 00:38:38;;;;;;;2.65;1.67;;;23.00;52.30;;;;;;6114695;28;80294;-64
2022/07/11 00:41:39;;;;;;;2.65;1.55;;;23.00;52.30;;;;;;6114413;28;80316;-65
2022/07/11 00:44:40;;;;;;;3.35;1.90;;;23.00;52.30;;;;;;6112027;28;81094;-64
2022/07/11 00:47:40;;;;;;;4.32;1.95;;;23.00;52.40;;;;;;6102381;28;80822;-64
2022/07/11 00:50:41;;;;;;;3.97;1.80;;;23.00;52.40;;;;;;6112768;28;80294;-64
2022/07/11 00:53:41;;;;;;;5.05;1.63;;;23.00;52.50;;;;;;6114019;28;80746;-65
2022/07/11 00:56:42;;;;;;;3.55;1.70;;;23.00;52.50;;;;;;6106915;28;81771;-64
2022/07/11 00:59:42;;;;;;;5.38;2.03;;;23.00;52.60;;;;;;6106336;28;81763;-64
2022/07/11 01:02:43;;;;;;;5.65;1.60;;;23.00;52.60;;;;;;6112942;28;81386;-65
2022/07/11 01:05:43;;;;;;;3.45;1.35;;;23.00;52.70;;;;;;6113738;28;84773;-65
2022/07/11 01:08:44;;;;;;;6.00;2.00;;;22.90;52.50;;;;;;6113908;28;80439;-66
2022/07/11 01:11:44;;;;;;;3.00;1.63;;;22.90;52.60;;;;;;6113872;28;80880;-65
2022/07/11 01:14:45;;;;;;;2.90;1.48;;;22.90;52.50;;;;;;6113872;28;80660;-66
2022/07/11 01:17:45;;;;;;;5.82;1.90;;;22.90;52.50;;;;;;6111936;28;81602;-64
2022/07/11 01:20:46;;;;;;;3.17;1.95;;;23.00;52.60;;;;;;6112177;28;80262;-65
2022/07/11 01:23:46;;;;;;;3.85;1.55;;;22.90;52.60;;;;;;6120549;28;80661;-65
2022/07/11 01:26:47;;;;;;;3.08;1.58;;;22.90;52.60;;;;;;6133207;28;80504;-65
2022/07/11 01:29:47;;;;;;;3.35;1.88;;;22.90;52.60;;;;;;6119539;28;80577;-65
2022/07/11 01:32:48;;;;;;;7.18;1.75;;;22.90;52.60;;;;;;6113179;28;80980;-64
2022/07/11 01:35:48;;;;;;;8.77;2.28;;;23.00;52.70;;;;;;6104637;28;80287;-64
2022/07/11 01:38:49;;;;;;;4.93;1.75;;;22.90;53.20;;;;;;6117684;28;81692;-64
2022/07/11 01:41:49;;;;;;;4.03;1.40;;;22.90;52.60;;;;;;6116805;28;81464;-64
2022/07/11 01:44:50;;;;;;;6.43;2.20;;;22.90;52.60;;;;;;6122081;28;80514;-65
2022/07/11 01:47:50;;;;;;;5.68;1.40;;;22.90;52.60;;;;;;6114306;28;80352;-65
2022/07/11 01:50:51;;;;;;;1.73;1.50;;;22.90;52.50;;;;;;6107576;28;80129;-64
2022/07/11 01:53:52;;;;;;;3.35;1.77;;;22.90;52.60;;;;;;6108164;28;82857;-65
2022/07/11 01:56:53;;;;;;;3.53;1.55;;;22.90;52.60;;;;;;6108340;28;80478;-64
2022/07/11 01:59:53;;;;;;;3.08;1.65;;;22.90;52.60;;;;;;6081262;28;81804;-64
2022/07/11 02:02:54;;;;;;;3.72;1.70;;;22.90;52.60;;;;;;6117630;28;80365;-64
2022/07/11 02:05:54;;;;;;;3.63;1.90;;;22.90;52.60;;;;;;6103011;28;80497;-65
2022/07/11 02:08:55;;;;;;;5.15;1.63;;;22.90;52.60;;;;;;6117426;28;80408;-64
2022/07/11 02:11:55;;;;;;;5.03;2.03;;;22.90;52.70;;;;;;6111309;28;83121;-64
2022/07/11 02:14:56;;;;;;;2.83;1.50;;;22.90;52.60;;;;;;6114465;28;80832;-64
2022/07/11 02:17:56;;;;;;;20.58;2.30;;;22.90;52.70;;;;;;6127485;28;80432;-64
2022/07/11 02:20:57;;;;;;;3.63;1.60;;;22.80;52.70;;;;;;6112082;28;80283;-64
2022/07/11 02:23:57;;;;;;;2.42;1.50;;;22.80;52.80;;;;;;6109993;28;80606;-64
2022/07/11 02:26:58;;;;;;;4.07;1.75;;;22.80;52.80;;;;;;6112689;28;80319;-64
2022/07/11 02:29:58;;;;;;;3.03;1.80;;;22.80;52.80;;;;;;6112205;28;81754;-64
2022/07/11 02:32:59;;;;;;;5.05;1.63;;;22.80;52.80;;;;;;6112010;28;87483;-64
2022/07/11 02:36:00;;;;;;;4.28;1.30;;;22.80;53.00;;;;;;6114562;28;80541;-63
2022/07/11 02:39:00;;;;;;;4.60;1.92;;;22.80;53.00;;;;;;6121937;28;80365;-63
2022/07/11 02:42:01;;;;;;;6.43;2.20;;;22.80;53.00;;;;;;6118165;28;80659;-64
2022/07/11 02:45:01;;;;;;;4.45;1.92;;;22.80;53.00;;;;;;6116858;28;80232;-63
2022/07/11 02:48:02;;;;;;;4.28;1.95;;;22.80;52.90;;;;;;6111190;28;81959;-63
2022/07/11 02:51:02;;;;;;;3.42;1.80;;;22.80;53.00;;;;;;6105895;28;81331;-63
2022/07/11 02:54:04;;;;;;;4.90;1.60;;;22.90;53.10;;;;;;6111754;28;80141;-63
2022/07/11 02:57:04;;;;;;;5.20;1.50;;;22.80;53.00;;;;;;6108695;28;81078;-63
2022/07/11 03:00:05;;;;;;;1.70;1.40;;;22.80;53.00;;;;;;6111671;28;80643;-63
2022/07/11 03:03:05;;;;;;;4.60;1.83;;;22.80;53.10;;;;;;6112051;28;80506;-62
2022/07/11 03:06:05;;;;;;;2.72;1.65;;;22.80;53.10;;;;;;6111789;28;81322;-64
2022/07/11 03:09:06;;;;;;;4.95;1.75;;;22.80;53.10;;;;;;6111628;28;80480;-62
2022/07/11 03:12:06;;;;;;;4.43;2.15;;;22.80;53.10;;;;;;6111414;28;80099;-62
2022/07/11 03:15:07;;;;;;;2.58;1.55;;;22.80;53.10;;;;;;6111558;28;81371;-61
2022/07/11 03:18:08;;;;;;;7.47;2.53;;;22.80;53.10;;;;;;6111520;28;80738;-63
2022/07/11 03:21:08;;;;;;;4.35;1.48;;;22.80;53.20;;;;;;6115506;28;80293;-62
2022/07/11 03:24:09;;;;;;;3.50;1.95;;;22.80;53.10;;;;;;6111483;28;80468;-63
2022/07/11 03:27:09;;;;;;;8.10;2.78;;;22.80;53.10;;;;;;6111617;28;80959;-64
2022/07/11 03:30:10;;;;;;;5.72;2.10;;;22.80;53.10;;;;;;6112908;28;81520;-63
2022/07/11 03:33:11;;;;;;;4.45;1.65;;;22.80;53.30;;;;;;6123243;28;80905;-64
2022/07/11 03:36:11;;;;;;;4.97;2.05;;;22.80;53.80;;;;;;6109689;28;81792;-64
2022/07/11 03:39:12;;;;;;;4.47;1.75;;;22.80;53.20;;;;;;6111350;28;80347;-63
2022/07/11 03:42:12;;;;;;;5.72;2.03;;;22.80;53.10;;;;;;6111208;28;80653;-63
2022/07/11 03:45:13;;;;;;;4.85;1.90;;;22.80;53.30;;;;;;6110973;28;80114;-64
2022/07/11 03:48:13;;;;;;;4.75;2.22;;;22.80;53.40;;;;;;6109998;28;80496;-64
2022/07/11 03:51:13;;;;;;;7.75;2.05;;;22.80;53.40;;;;;;6099581;28;80810;-64
2022/07/11 03:54:14;;;;;;;2.55;1.50;;;22.80;53.40;;;;;;6110575;28;82726;-63
2022/07/11 03:57:14;;;;;;;5.95;1.83;;;22.80;53.30;;;;;;6110711;28;81566;-63
2022/07/11 04:00:16;;;;;;;4.07;1.92;;;22.80;53.40;;;;;;6110960;28;80713;-63
2022/07/11 04:03:16;;;;;;;10.40;2.10;;;22.80;53.40;;;;;;6109375;28;80606;-65
2022/07/11 04:06:17;;;;;;;3.10;1.67;;;22.80;53.80;;;;;;6100655;28;81639;-70
2022/07/11 04:09:17;;;;;;;3.17;1.70;;;22.90;53.80;;;;;;6114098;28;80488;-67
2022/07/11 04:12:18;;;;;;;4.97;1.60;;;22.90;53.80;;;;;;6111223;28;80945;-64
2022/07/11 04:15:18;;;;;;;8.80;2.20;;;23.00;54.00;;;;;;6076855;28;81077;-63
2022/07/11 04:18:19;;;;;;;6.22;1.50;;;23.00;53.90;;;;;;6080635;28;80456;-62
2022/07/11 04:21:19;;;;;;;8.30;1.73;;;23.00;54.00;;;;;;6084212;28;80466;-63
2022/07/11 04:24:20;;;;;;;2.92;1.70;;;23.10;54.30;;;;;;6083965;28;80896;-62
2022/07/11 04:27:20;;;;;;;4.32;1.80;;;23.10;54.00;;;;;;6085283;28;80866;-63
2022/07/11 04:30:21;;;;;;;2.55;1.50;;;23.20;54.00;;;;;;6086722;28;81299;-64
2022/07/11 04:33:21;;;;;;;7.38;1.88;;;23.20;53.90;;;;;;6093031;28;80385;-62
2022/07/11 04:36:22;;;;;;;4.40;1.90;;;23.20;54.10;;;;;;6101452;28;80240;-63
2022/07/11 04:39:22;;;;;;;5.50;1.63;;;23.20;54.30;;;;;;6114809;28;81050;-63
2022/07/11 04:42:23;;;;;;;5.70;1.80;;;23.30;54.20;;;;;;6115731;28;80331;-63
2022/07/11 04:45:24;;;;;;;3.10;1.70;;;23.30;54.30;;;;;;6112847;28;80411;-63
2022/07/11 04:48:24;;;;;;;2.60;1.65;;;23.30;54.40;;;;;;6112584;28;80408;-63
2022/07/11 04:51:25;;;;;;;5.47;2.03;;;23.40;54.20;;;;;;6111139;28;82118;-63
2022/07/11 04:54:25;;;;;;;4.65;1.45;;;23.40;54.70;;;;;;6105292;28;80352;-70
2022/07/11 04:57:26;;;;;;;3.42;1.40;;;23.40;54.60;;;;;;6099759;28;81699;-69
2022/07/11 05:00:26;;;;;;;4.00;1.75;;;23.40;54.40;;;;;;6116224;28;80010;-63
2022/07/11 05:03:27;;;;;;;28.63;1.90;;;23.40;54.40;;;;;;6116670;28;80365;-63
2022/07/11 05:06:27;;;;;;;6.28;1.95;;;23.40;54.80;;;;;;6110241;28;80798;-64
2022/07/11 05:09:28;;;;;;;6.90;1.98;;;23.40;55.00;;;;;;6112074;28;80219;-65
2022/07/11 05:12:28;;;;;;;3.88;1.75;;;23.50;55.20;;;;;;6123947;28;80540;-75
2022/07/11 05:15:29;;;;;;;7.30;2.20;;;23.30;54.10;;;;;;6111880;28;80481;-63
2022/07/11 05:18:29;;;;;;;11.25;3.53;;;23.10;54.40;;;;;;6111036;28;80283;-64
2022/07/11 05:21:30;;;;;;;26.95;3.13;;;23.10;54.40;;;;;;6106774;28;81531;-64
2022/07/11 05:24:30;;;;;;;9.93;2.72;;;23.10;54.60;;;;;;6106300;28;80643;-64
2022/07/11 05:27:31;;;;;;;7.90;2.65;;;23.10;54.40;;;;;;6103951;28;81947;-64
2022/07/11 05:30:31;;;;;;;5.13;2.70;;;23.00;54.50;;;;;;6106238;28;81123;-65
2022/07/11 05:33:32;;;;;;;3.40;2.05;;;23.00;54.50;;;;;;6103861;28;80431;-63
2022/07/11 05:36:32;;;;;;;4.13;2.22;;;23.00;54.60;;;;;;6110845;28;80506;-63
2022/07/11 05:39:33;;;;;;;7.20;2.67;;;23.00;54.60;;;;;;6115756;28;81204;-64
2022/07/11 05:42:33;;;;;;;8.30;3.35;;;23.00;54.70;;;;;;6108171;28;80377;-64
2022/07/11 05:45:34;;;;;;;6.68;2.58;;;23.00;54.80;;;;;;6112435;28;80264;-63
2022/07/11 05:48:34;;;;;;;42.17;18.52;;;23.00;55.10;;;;;;6111541;28;81894;-62
2022/07/11 05:51:36;;;;;;;56.15;28.02;;;22.90;55.30;;;;;;6107366;28;88822;-63
2022/07/11 05:54:36;;;;;;;62.25;28.50;;;22.90;55.50;;;;;;6104504;28;84602;-66
2022/07/11 05:57:37;;;;;;;64.47;31.70;;;22.90;55.50;;;;;;6105678;28;83232;-65
2022/07/11 06:00:37;;;;;;;51.95;25.90;;;22.90;55.70;;;;;;6090173;28;84559;-64
2022/07/11 06:03:38;;;;;;;45.22;21.77;;;22.80;55.70;;;;;;6094424;28;86721;-64
2022/07/11 06:06:38;;;;;;;43.53;18.30;;;22.80;55.90;;;;;;6105415;28;84117;-63
2022/07/11 06:09:39;;;;;;;34.88;14.55;;;22.70;55.90;;;;;;6107146;28;83126;-66
2022/07/11 06:12:41;;;;;;;32.63;13.68;;;22.70;55.90;;;;;;6102709;28;83991;-65
2022/07/11 06:15:41;;;;;;;16.90;8.38;;;22.70;56.10;;;;;;6109066;28;84233;-65
2022/07/11 06:18:42;;;;;;;17.08;8.00;;;22.70;56.70;;;;;;6102909;28;84341;-65
2022/07/11 06:21:42;;;;;;;16.52;6.32;;;22.70;56.30;;;;;;6111681;28;81584;-64
2022/07/11 06:24:44;;;;;;;16.50;6.25;;;22.80;56.00;;;;;;6107680;28;80406;-63
2022/07/11 06:27:44;;;;;;;11.48;5.40;;;22.80;56.10;;;;;;6112099;28;81431;-67
2022/07/11 06:30:45;;;;;;;9.20;4.30;;;22.80;55.90;;;;;;6112215;28;85670;-64
2022/07/11 06:33:45;;;;;;;9.20;3.50;;;22.90;55.90;;;;;;6112252;28;80283;-65
2022/07/11 06:36:46;;;;;;;8.45;4.28;;;23.00;55.80;;;;;;6112186;28;81555;-64
2022/07/11 06:39:46;;;;;;;5.55;3.08;;;22.90;55.90;;;;;;6103636;28;83345;-64
2022/07/11 06:42:47;;;;;;;5.45;2.80;;;22.90;55.50;;;;;;6103719;28;80165;-65
2022/07/11 06:45:47;;;;;;;10.30;2.88;;;22.90;55.70;;;;;;6103739;28;81454;-65
2022/07/11 06:48:48;;;;;;;13.63;2.75;;;22.90;55.30;;;;;;6112163;28;81309;-65
2022/07/11 06:51:48;;;;;;;5.88;2.85;;;22.80;55.40;;;;;;6105908;28;81513;-66
2022/07/11 06:54:49;;;;;;;4.20;2.17;;;22.90;55.40;;;;;;6100775;28;80263;-68
2022/07/11 06:57:52;;;;;;;8.55;2.80;;;22.90;55.50;;;;;;6100197;28;80378;-65
2022/07/11 07:00:53;;;;;;;5.07;2.30;;;23.00;55.60;;;;;;6105881;28;80499;-66
2022/07/11 07:03:53;;;;;;;8.35;3.10;;;22.90;55.30;;;;;;6106948;28;80381;-67
2022/07/11 07:06:54;;;;;;;17.25;2.53;;;22.80;55.30;;;;;;6106402;28;81467;-66
2022/07/11 07:09:54;;;;;;;10.20;2.80;;;22.80;55.40;;;;;;6109167;28;80141;-66
2022/07/11 07:12:55;;;;;;;9.00;2.47;;;22.80;55.10;;;;;;6110821;28;80582;-64
2022/07/11 07:15:56;;;;;;;6.80;2.30;;;22.80;54.80;;;;;;6102670;28;81625;-65
2022/07/11 07:18:57;;;;;;;5.20;2.25;;;22.80;54.50;;;;;;6092363;28;81964;-66
2022/07/11 07:21:57;;;;;;;9.20;3.00;;;22.90;54.70;;;;;;6091252;28;80623;-66
2022/07/11 07:24:58;;;;;;;6.05;2.60;;;22.80;54.70;;;;;;6103422;28;81120;-67
2022/07/11 07:27:59;;;;;;;7.93;2.65;;;22.90;55.30;;;;;;6101030;28;80875;-66
2022/07/11 07:30:59;;;;;;;5.45;2.72;;;22.70;54.50;;;;;;6102961;28;80457;-67
2022/07/11 07:34:00;;;;;;;5.80;2.22;;;22.80;55.00;;;;;;6107612;28;80668;-67
2022/07/11 07:37:00;;;;;;;11.15;2.80;;;22.90;54.90;;;;;;6109901;28;80371;-67
2022/07/11 07:40:01;;;;;;;8.68;2.38;;;22.90;54.20;;;;;;6101912;28;82336;-66
2022/07/11 07:43:01;;;;;;;4.05;2.03;;;22.90;53.70;;;;;;6105233;28;80924;-66
2022/07/11 07:46:02;;;;;;;7.13;2.92;;;22.90;54.20;;;;;;6108842;28;81676;-73
2022/07/11 07:49:02;;;;;;;5.15;2.00;;;22.90;54.00;;;;;;6112379;28;80531;-74
2022/07/11 07:52:03;;;;;;;4.72;1.83;;;22.90;54.10;;;;;;6111504;28;80501;-74
2022/07/11 07:55:03;;;;;;;6.03;2.00;;;22.70;54.50;;;;;;6112283;28;80956;-78
2022/07/11 07:58:04;;;;;;;7.50;2.25;;;22.80;54.60;;;;;;6109286;28;80761;-66
2022/07/11 08:04:24;;;;;;;5.03;2.17;;;22.90;54.90;;;;;;6104534;28;82093;-65
2022/07/11 08:07:24;;;;;;;5.22;2.72;;;23.00;54.90;;;;;;6119427;28;80541;-65
2022/07/11 08:10:25;;;;;;;6.32;2.45;;;23.00;55.30;;;;;;6113366;28;80701;-65
2022/07/11 08:13:25;;;;;;;5.47;2.60;;;23.00;55.40;;;;;;6111309;28;80610;-64
2022/07/11 08:16:28;;;;;;;5.03;2.90;;;23.00;55.20;;;;;;6114703;28;81293;-65
2022/07/11 08:19:30;;;;;;;6.90;2.50;;;22.90;56.00;;;;;;6113697;28;80779;-65
2022/07/11 08:22:31;;;;;;;11.88;3.97;;;22.90;55.80;;;;;;6123674;28;81281;-65
2022/07/11 08:25:31;;;;;;;4.68;2.13;;;22.90;55.40;;;;;;6132821;28;80616;-66
2022/07/11 08:28:32;;;;;;;4.45;2.20;;;22.90;55.40;;;;;;6116776;28;80361;-65
2022/07/11 08:31:32;;;;;;;6.68;2.63;;;23.00;55.10;;;;;;6119213;28;80524;-65
2022/07/11 08:34:33;;;;;;;6.68;2.95;;;22.90;55.20;;;;;;6120389;28;80420;-67
2022/07/11 08:37:33;;;;;;;5.95;2.50;;;22.90;54.60;;;;;;6115454;28;80720;-66
2022/07/11 08:40:34;;;;;;;8.50;1.77;;;23.00;54.00;;;;;;6114651;28;80311;-66
2022/07/11 08:43:35;;;;;;;4.97;2.17;;;23.00;53.80;;;;;;6114427;28;80281;-68
2022/07/11 08:46:36;;;;;;;8.18;2.22;;;23.00;53.40;;;;;;6114246;28;80536;-66
2022/07/11 08:49:36;;;;;;;7.93;1.88;;;23.00;53.40;;;;;;6117358;28;81851;-65
2022/07/11 08:52:36;;;;;;;8.63;1.90;;;22.90;53.10;;;;;;6114795;28;80122;-67
2022/07/11 08:55:37;;;;;;;6.30;2.03;;;22.70;52.30;;;;;;6114654;28;80737;-65
2022/07/11 08:58:38;;;;;;;9.13;3.95;;;22.10;54.00;;;;;;6112970;28;81505;-65
2022/07/11 09:01:38;;;;;;;11.88;3.20;;;21.80;54.70;;;;;;6123153;28;80619;-66
2022/07/11 09:04:39;;;;;;;7.05;2.33;;;21.80;55.20;;;;;;6119943;28;81464;-66
2022/07/11 09:07:40;;;;;;;10.30;2.22;;;21.30;56.40;;;;;;6114548;28;81477;-64
2022/07/11 09:10:40;;;;;;;8.32;2.15;;;21.00;57.80;;;;;;6115564;28;80498;-63
2022/07/11 09:13:41;;;;;;;3.90;1.90;;;20.90;58.90;;;;;;6108913;28;81017;-65
2022/07/11 09:16:41;;;;;;;10.75;3.85;;;20.80;59.50;;;;;;6106934;28;81643;-64
2022/07/11 09:19:42;;;;;;;19.90;8.50;;;20.90;58.20;;;;;;6095859;28;80202;-63
2022/07/11 09:26:01;;;;;;;5.95;2.03;;;20.80;59.40;;;;;;6120417;28;80933;-78
2022/07/11 09:29:03;;;;;;;5.22;1.63;;;21.00;59.70;;;;;;6114951;28;80410;-80
2022/07/11 09:32:04;;;;;;;6.10;2.17;;;21.20;59.00;;;;;;6114547;28;80238;-78
2022/07/11 09:35:05;;;;;;;9.45;2.28;;;21.50;58.40;;;;;;6116132;28;80961;-70
2022/07/11 09:38:05;;;;;;;13.73;3.20;;;21.80;57.70;;;;;;6108892;28;80239;-77
2022/07/11 09:41:06;;;;;;;11.48;3.08;;;22.00;56.70;;;;;;6121700;28;81945;-79
2022/07/11 09:44:06;;;;;;;12.73;2.45;;;22.00;55.70;;;;;;6112885;28;87521;-77
2022/07/11 09:47:07;;;;;;;6.55;2.30;;;22.00;54.30;;;;;;6117676;28;82349;-78
2022/07/11 09:50:07;;;;;;;5.43;2.13;;;22.00;54.20;;;;;;6111501;28;81783;-78
2022/07/11 09:53:08;;;;;;;5.32;2.33;;;22.10;54.30;;;;;;6119639;28;81731;-73
2022/07/11 09:56:08;;;;;;;9.13;2.20;;;22.10;53.80;;;;;;6112068;28;80290;-73
2022/07/11 09:59:09;;;;;;;28.05;5.05;;;22.10;53.30;;;;;;6096776;28;82300;-80
2022/07/11 10:02:14;;;;;;;9.88;3.28;;;22.10;54.20;;;;;;6113175;28;80801;-72
2022/07/11 10:05:15;;;;;;;11.60;2.77;;;22.20;53.60;;;;;;6114451;28;81926;-78
2022/07/11 10:08:15;;;;;;;10.90;2.83;;;22.20;53.30;;;;;;6122906;28;80412;-76
2022/07/11 10:11:16;;;;;;;7.95;2.65;;;22.30;53.90;;;;;;6117500;28;81570;-70
2022/07/11 10:14:16;;;;;;;18.05;2.55;;;22.10;53.40;;;;;;6114259;28;81228;-70
2022/07/11 10:17:16;;;;;;;11.38;3.67;;;22.30;52.80;;;;;;6105158;28;85585;-70
2022/07/11 10:20:17;;;;;;;6.13;2.80;;;22.40;52.50;;;;;;6119916;28;80338;-70
2022/07/11 10:23:18;;;;;;;6.13;2.85;;;22.50;52.60;;;;;;6108598;28;80556;-73
2022/07/11 10:26:18;;;;;;;17.15;4.65;;;22.70;52.10;;;;;;6110438;28;80468;-74
2022/07/11 10:29:18;;;;;;;18.23;4.47;;;22.70;50.50;;;;;;6103269;28;81491;-72
2022/07/11 10:32:19;;;;;;;7.93;2.80;;;22.70;49.00;;;;;;6107024;28;81403;-71
2022/07/11 10:35:19;;;;;;;12.43;5.25;;;22.70;48.50;;;;;;6105130;28;80346;-70
2022/07/11 10:38:20;;;;;;;24.80;11.48;;;22.70;48.70;;;;;;6098496;28;82062;-72
2022/07/11 10:41:20;;;;;;;83.10;44.70;;;22.70;49.00;;;;;;6105669;28;83037;-74
2022/07/11 10:44:21;;;;;;;42.20;18.83;;;22.80;49.70;;;;;;6101595;28;83432;-71
2022/07/11 10:47:21;;;;;;;15.50;8.13;;;22.80;49.60;;;;;;6100698;28;84388;-73
2022/07/11 10:50:22;;;;;;;8.63;5.15;;;22.70;49.60;;;;;;6086676;28;86109;-70
2022/07/11 10:53:22;;;;;;;6.55;3.13;;;22.80;49.70;;;;;;6099758;28;80665;-72
2022/07/11 10:56:23;;;;;;;4.88;2.20;;;22.80;49.00;;;;;;6105007;28;80183;-77
2022/07/11 10:59:23;;;;;;;4.13;1.67;;;22.80;48.30;;;;;;6120842;28;80566;-70
2022/07/11 11:02:24;;;;;;;6.38;2.25;;;22.80;48.10;;;;;;6114910;28;81472;-78
2022/07/11 11:05:24;;;;;;;6.38;1.42;;;22.80;47.30;;;;;;6117619;28;81377;-77
2022/07/11 11:08:25;;;;;;;6.85;1.42;;;22.70;46.70;;;;;;6118446;28;80492;-85
2022/07/11 11:11:26;;;;;;;5.57;0.95;;;22.80;46.90;;;;;;6118803;28;81007;-84
2022/07/11 11:14:26;;;;;;;5.25;1.15;;;22.70;47.60;;;;;;6115863;28;81871;-76
2022/07/11 11:17:27;;;;;;;14.93;2.15;;;22.70;48.30;;;;;;6115206;28;81058;-79
2022/07/11 11:20:27;;;;;;;8.63;1.70;;;22.70;49.20;;;;;;6112103;28;80845;-70
2022/07/11 11:23:28;;;;;;;14.25;4.13;;;22.70;49.50;;;;;;6117825;28;80326;-74
2022/07/11 11:26:28;;;;;;;18.33;3.83;;;22.60;50.20;;;;;;6100312;28;80451;-79
2022/07/11 11:29:29;;;;;;;9.73;2.65;;;22.60;51.00;;;;;;6112914;28;80757;-77
2022/07/11 11:32:30;;;;;;;5.90;2.33;;;22.50;51.70;;;;;;6126679;28;80473;-72
2022/07/11 11:35:31;;;;;;;10.25;3.08;;;22.50;52.30;;;;;;6115826;28;80296;-76
2022/07/11 11:38:31;;;;;;;10.73;3.45;;;22.40;53.90;;;;;;6117159;28;80371;-67
2022/07/11 11:41:32;;;;;;;11.00;2.78;;;22.30;53.90;;;;;;6113221;28;84089;-66
2022/07/11 11:44:32;;;;;;;6.13;3.15;;;22.40;54.20;;;;;;6120795;28;81344;-65
2022/07/11 11:47:33;;;;;;;4.72;1.95;;;22.40;54.20;;;;;;6114810;28;80142;-66
2022/07/11 11:50:33;;;;;;;6.80;1.83;;;22.50;54.10;;;;;;6114267;28;81090;-65
2022/07/11 11:53:34;;;;;;;10.52;2.83;;;22.50;53.80;;;;;;6115842;28;80700;-64
2022/07/11 11:56:36;;;;;;;3.25;1.85;;;22.50;53.70;;;;;;6115647;28;80512;-64
2022/07/11 11:59:36;;;;;;;8.05;1.95;;;22.50;53.40;;;;;;6105454;28;80549;-65
2022/07/11 12:02:37;;;;;;;6.05;1.67;;;22.50;53.60;;;;;;6104269;28;83085;-65
2022/07/11 12:05:37;;;;;;;3.75;1.40;;;22.50;53.40;;;;;;6109278;28;80925;-65
2022/07/11 12:08:38;;;;;;;3.03;1.38;;;22.50;53.60;;;;;;6107375;28;81544;-65
2022/07/11 12:11:38;;;;;;;3.83;1.42;;;22.50;53.70;;;;;;6105279;28;80427;-65
2022/07/11 12:14:39;;;;;;;3.03;0.90;;;22.60;53.90;;;;;;6115687;28;80399;-64
2022/07/11 12:17:39;;;;;;;2.80;1.77;;;22.40;54.30;;;;;;6126604;28;80480;-62
2022/07/11 12:20:40;;;;;;;3.72;1.52;;;22.50;54.90;;;;;;6119322;28;82971;-64
2022/07/11 12:23:40;;;;;;;2.55;1.20;;;22.50;54.90;;;;;;6109830;28;81569;-66
2022/07/11 12:26:40;;;;;;;7.03;1.42;;;22.60;55.10;;;;;;6102890;28;81600;-65
2022/07/11 12:29:44;;;;;;;5.95;2.60;;;22.60;55.20;;;;;;6115893;28;80894;-64
2022/07/11 12:32:45;;;;;;;4.07;2.40;;;22.30;56.30;;;;;;6122440;28;80325;-63
2022/07/11 12:35:45;;;;;;;2.60;1.20;;;21.60;58.70;;;;;;6113632;28;81540;-63
2022/07/11 12:38:45;;;;;;;3.75;1.48;;;21.00;60.80;;;;;;6116320;28;81493;-63
2022/07/11 12:41:46;;;;;;;1.88;1.15;;;20.90;61.50;;;;;;6115150;28;80832;-63
2022/07/11 12:44:59;;;;;;;5.00;1.35;;;20.40;62.20;;;;;;6118635;28;80580;-64
2022/07/11 12:47:59;;;;;;;5.40;2.70;;;20.10;63.70;;;;;;6114689;28;85004;-65
2022/07/11 12:51:00;;;;;;;1.67;0.95;;;19.70;65.40;;;;;;6112565;28;80816;-65
2022/07/11 12:54:01;;;;;;;1.77;1.00;;;19.70;66.10;;;;;;6108948;28;80504;-74
2022/07/11 12:57:01;;;;;;;3.33;0.98;;;19.70;65.80;;;;;;6107490;28;81313;-62
2022/07/11 13:00:02;;;;;;;2.75;0.95;;;20.10;64.80;;;;;;6104655;28;80940;-64
2022/07/11 13:03:03;;;;;;;4.60;1.20;;;20.40;63.10;;;;;;6104231;28;81989;-64
2022/07/11 13:06:04;;;;;;;3.78;1.65;;;20.70;61.70;;;;;;6109384;28;80545;-64
2022/07/11 13:09:05;;;;;;;5.43;1.30;;;21.10;60.60;;;;;;6107150;28;80605;-62
2022/07/11 13:12:05;;;;;;;5.63;1.30;;;21.10;59.50;;;;;;6113837;28;81399;-62
2022/07/11 13:15:09;;;;;;;3.70;1.10;;;21.10;59.50;;;;;;6113271;28;80926;-62
2022/07/11 13:18:10;;;;;;;1.73;0.80;;;21.30;59.00;;;;;;6114521;28;81552;-63
2022/07/11 13:21:10;;;;;;;1.27;0.90;;;21.40;58.40;;;;;;6108687;28;80941;-62
2022/07/11 13:24:11;;;;;;;2.67;0.85;;;21.30;58.00;;;;;;6115767;28;80416;-72
2022/07/11 13:27:11;;;;;;;3.40;1.23;;;21.40;57.80;;;;;;6116716;28;80365;-63
2022/07/11 13:30:14;;;;;;;3.97;1.58;;;21.40;57.90;;;;;;6117085;28;80996;-64
2022/07/11 13:33:15;;;;;;;8.48;1.48;;;21.50;58.10;;;;;;6113048;28;80842;-64
2022/07/11 13:36:16;;;;;;;2.95;1.13;;;21.10;59.70;;;;;;6125442;28;80662;-64
2022/07/11 13:39:16;;;;;;;3.88;1.48;;;20.80;61.60;;;;;;6099051;28;80847;-65
2022/07/11 13:42:17;;;;;;;3.05;1.30;;;20.60;62.50;;;;;;6117468;28;80543;-69
2022/07/11 13:45:17;;;;;;;4.47;1.20;;;20.80;62.10;;;;;;6110779;28;80928;-68
2022/07/11 13:48:18;;;;;;;2.50;1.48;;;21.00;61.00;;;;;;6103370;28;81777;-64
2022/07/11 13:51:18;;;;;;;2.13;1.30;;;21.30;59.50;;;;;;6101951;28;80315;-66
2022/07/11 13:54:19;;;;;;;3.25;1.35;;;21.30;59.10;;;;;;6098805;28;80584;-65
2022/07/11 13:57:20;;;;;;;2.88;0.90;;;21.40;58.20;;;;;;6101958;28;80520;-64
2022/07/11 14:00:20;;;;;;;4.13;1.10;;;21.60;57.40;;;;;;6104720;28;80864;-65
2022/07/11 14:03:21;;;;;;;1.85;0.70;;;21.50;57.20;;;;;;6103010;28;80701;-65
2022/07/11 14:06:22;;;;;;;2.58;1.00;;;21.70;56.70;;;;;;6102785;28;81561;-65
2022/07/11 14:09:22;;;;;;;2.30;0.98;;;21.90;56.20;;;;;;6107625;28;81251;-64
2022/07/11 14:12:23;;;;;;;2.05;0.90;;;21.60;55.60;;;;;;6104230;28;81616;-65
2022/07/11 14:15:23;;;;;;;2.25;0.90;;;21.80;55.70;;;;;;6110294;28;80317;-66
2022/07/11 14:18:24;;;;;;;1.95;0.80;;;22.00;55.60;;;;;;6105444;28;81284;-67
2022/07/11 14:21:24;;;;;;;1.00;0.88;;;22.10;55.20;;;;;;6107398;28;80622;-65
2022/07/11 14:24:26;;;;;;;1.55;0.80;;;22.10;54.90;;;;;;6104490;28;80816;-66
2022/07/11 14:27:27;;;;;;;0.73;0.73;;;22.30;55.00;;;;;;6096975;28;82456;-65
2022/07/11 14:30:27;;;;;;;2.80;0.90;;;22.50;54.90;;;;;;6108629;28;81161;-66
2022/07/11 14:33:28;;;;;;;1.58;0.80;;;22.60;54.00;;;;;;6110542;28;81383;-66
2022/07/11 14:36:28;;;;;;;1.23;0.85;;;22.70;54.30;;;;;;6105747;28;80444;-65
2022/07/11 14:39:29;;;;;;;4.05;0.90;;;22.80;54.70;;;;;;6110840;28;81255;-67
2022/07/11 14:42:30;;;;;;;1.80;1.13;;;22.90;54.50;;;;;;6104222;28;80287;-65
2022/07/11 14:45:30;;;;;;;3.25;1.40;;;22.90;54.10;;;;;;6103994;28;80924;-65
2022/07/11 14:48:31;;;;;;;1.60;0.88;;;23.00;54.40;;;;;;6105030;28;80996;-66
2022/07/11 14:51:31;;;;;;;0.85;0.85;;;23.00;54.20;;;;;;6111939;28;81650;-65
2022/07/11 14:54:32;;;;;;;1.55;1.00;;;23.10;54.00;;;;;;6111396;28;80901;-67
2022/07/11 14:57:32;;;;;;;1.08;0.98;;;23.00;54.00;;;;;;6105560;28;81318;-65
2022/07/11 15:00:33;;;;;;;0.93;0.82;;;23.00;53.90;;;;;;6109276;28;81590;-66
2022/07/11 15:03:42;;;;;;;1.15;0.77;;;23.00;54.10;;;;;;6101169;28;86078;-66
2022/07/11 15:13:21;;;;;;;1.67;1.13;;;23.20;53.10;;;;;;6104275;28;81969;-64
2022/07/11 15:16:21;;;;;;;1.40;0.90;;;23.20;52.60;;;;;;6110888;28;81229;-68
2022/07/11 15:19:22;;;;;;;1.77;0.90;;;23.20;52.70;;;;;;6116908;28;80867;-65
2022/07/11 15:22:22;;;;;;;1.15;1.02;;;23.20;52.90;;;;;;6105608;28;80893;-65
2022/07/11 15:25:23;;;;;;;1.63;0.93;;;23.20;52.90;;;;;;6104518;28;80057;-65
2022/07/11 15:28:23;;;;;;;1.15;1.05;;;23.20;53.00;;;;;;6107544;28;81828;-66
2022/07/11 15:31:24;;;;;;;1.35;0.90;;;23.20;53.00;;;;;;6109701;28;80432;-65
2022/07/11 15:34:25;;;;;;;1.65;1.15;;;23.20;53.00;;;;;;6111060;28;82061;-65
2022/07/11 15:37:25;;;;;;;1.50;1.00;;;23.20;52.90;;;;;;6115327;28;80306;-65
2022/07/11 15:40:26;;;;;;;1.00;0.73;;;23.20;53.10;;;;;;6127665;28;80479;-65
2022/07/11 15:43:26;;;;;;;0.82;0.82;;;23.20;53.10;;;;;;6117419;28;80967;-66
2022/07/11 15:46:27;;;;;;;1.10;0.70;;;23.20;53.00;;;;;;6090860;28;80252;-66
2022/07/11 15:49:28;;;;;;;1.17;1.00;;;23.20;53.10;;;;;;6098983;28;80887;-65
2022/07/11 15:52:28;;;;;;;1.10;0.70;;;23.20;53.10;;;;;;6108658;28;86192;-62